Terminal Aerodrome Forecast
Issued by NWS

Home | Current Version | Previous Version | Text Only | Print | Product List | Glossary Off
Versions: 1 2 3 4 5 6 7 8 9 10 11 12 13 14 15 16 17 18 19 20 21 22 23 24 25

000
FTUS43 KBIS 270900 AAC
TAFJMS
TAF AMD
KJMS 270952Z 2710/2806 32018G25KT P6SM OVC015
     FM271500 35018G25KT P6SM OVC025
     FM272100 35015G23KT P6SM BKN040
     FM280200 35007KT P6SM SCT040=

USA.gov is the U.S. government's official web portal to all federal, state and local government web resources and services.